»·PEaware :: N1790X KIFP-KBUR

N1790X :: KIFP-KBUR

FLIGHT INFORMATION

Flight Status: Arrived
Operator: Privately registered:
United States
More flights under this callsign
Pilot: Tim L. (7088)
Aircraft: CESSNA 421 GOLDEN EAGLE
(C421)
More flights by this aircraft type
Origin: KIFP Laughlin/Bullhead Intl
United States
Destination: KBUR Bob Hope-Burbank
United States
More flights between these airports :: More routes between these airports
Route: EED V12 HEC LYNXX8
File this flight plan on PilotEdge
Remarks:
Altitude:
(Current/Filed)
10,000ft
Speed:
(Current/Filed)
210kts
Departed: 30-Jan-16 03:23 PM
Arrived: 30-Jan-16 05:02 PM
Distance/Time
Traveled:
196nm/1:39
Distance/Time
To Go:
Arrived

Flight Plot

Page will automatically refresh every two minutes.


Map Options




Map Legend


Flown Route
Filed Route
Departure Airport
Arrival Airport
Navaid (VOR, NDB)
Fix

Horizontal Profiles

Position Reports

Time Latitude Longitude Heading Altitude Ground
Speed
30-Jan-16 14:57 35.159754 -114.556356 266 704ft 0kts
30-Jan-16 14:58 35.159754 -114.556356 266 704ft 0kts
30-Jan-16 14:59 35.159754 -114.556356 266 704ft 0kts
30-Jan-16 15:00 35.159754 -114.556356 266 704ft 0kts
30-Jan-16 15:01 35.159754 -114.556356 266 704ft 0kts
30-Jan-16 15:02 35.159754 -114.556356 266 704ft 0kts
30-Jan-16 15:03 35.159754 -114.556356 266 704ft 0kts
30-Jan-16 15:04 35.159754 -114.556356 266 704ft 0kts
30-Jan-16 15:05 35.159754 -114.556356 266 704ft 0kts
30-Jan-16 15:06 35.159754 -114.556356 266 704ft 0kts
30-Jan-16 15:07 35.159754 -114.556356 266 704ft 0kts
30-Jan-16 15:08 35.159754 -114.556356 266 704ft 0kts
30-Jan-16 15:09 35.159754 -114.556356 266 704ft 0kts
30-Jan-16 15:10 35.159754 -114.556356 266 704ft 0kts
30-Jan-16 15:11 35.159754 -114.556356 266 704ft 0kts
30-Jan-16 15:12 35.161103 -114.557200 322 704ft 10kts
30-Jan-16 15:13 35.163334 -114.558601 354 704ft 10kts
30-Jan-16 15:14 35.166210 -114.559192 269 704ft 0kts
30-Jan-16 15:15 35.166210 -114.559192 269 704ft 0kts
30-Jan-16 15:16 35.165711 -114.560170 175 704ft 17kts
30-Jan-16 15:17 35.142770 -114.558812 177 1550ft 106kts
30-Jan-16 15:19 35.110242 -114.556166 175 2991ft 126kts
30-Jan-16 15:20 35.080285 -114.548592 168 4235ft 100kts
30-Jan-16 15:21 35.054425 -114.536948 174 5232ft 98kts
30-Jan-16 15:22 35.026155 -114.530887 178 6154ft 113kts
30-Jan-16 15:23 34.993006 -114.523723 179 6969ft 127kts
30-Jan-16 15:24 34.953873 -114.515203 180 7546ft 143kts
30-Jan-16 15:25 34.915540 -114.506852 182 8444ft 142kts
30-Jan-16 15:26 34.877083 -114.498579 183 9240ft 149kts
30-Jan-16 15:27 34.835399 -114.489521 183 10032ft 158kts
30-Jan-16 15:28 34.785682 -114.479071 189 10077ft 193kts
30-Jan-16 15:29 34.766605 -114.522290 273 10081ft 161kts
30-Jan-16 15:30 34.768232 -114.578155 272 10077ft 168kts
30-Jan-16 15:31 34.769694 -114.635490 272 10076ft 170kts
30-Jan-16 15:32 34.771069 -114.693404 272 10075ft 171kts
30-Jan-16 15:33 34.772393 -114.751542 272 10064ft 172kts
30-Jan-16 15:34 34.773696 -114.810608 271 9982ft 173kts
30-Jan-16 15:35 34.774956 -114.868848 271 9982ft 171kts
30-Jan-16 15:36 34.776176 -114.926645 271 9981ft 171kts
30-Jan-16 15:37 34.777382 -114.984910 271 9981ft 171kts
30-Jan-16 15:38 34.778558 -115.043050 271 9981ft 171kts
30-Jan-16 15:39 34.779707 -115.101004 271 9980ft 171kts
30-Jan-16 15:40 34.780818 -115.158917 271 9980ft 171kts
30-Jan-16 15:41 34.781912 -115.217047 271 9979ft 171kts
30-Jan-16 15:42 34.782977 -115.274935 271 9979ft 171kts
30-Jan-16 15:43 34.784011 -115.332964 271 9978ft 171kts
30-Jan-16 15:44 34.784998 -115.390842 272 9960ft 171kts
30-Jan-16 15:45 34.785995 -115.448731 272 9960ft 170kts
30-Jan-16 15:46 34.786948 -115.506585 272 9987ft 170kts
30-Jan-16 15:47 34.787870 -115.564260 272 10016ft 171kts
30-Jan-16 15:48 34.788775 -115.622549 272 10044ft 173kts
30-Jan-16 15:49 34.787805 -115.678759 270 10079ft 175kts
30-Jan-16 15:49 34.787759 -115.728591 271 10084ft 177kts
30-Jan-16 15:50 34.788328 -115.788977 271 10083ft 178kts
30-Jan-16 15:51 34.789131 -115.849432 271 10083ft 178kts
30-Jan-16 15:52 34.789999 -115.910088 271 10082ft 178kts
30-Jan-16 15:53 34.790863 -115.970565 272 10082ft 178kts
30-Jan-16 15:54 34.791700 -116.030470 272 10081ft 176kts
30-Jan-16 15:55 34.792507 -116.089993 272 10081ft 175kts
30-Jan-16 15:56 34.793281 -116.149059 272 10080ft 173kts
30-Jan-16 15:57 34.794012 -116.207450 272 10066ft 172kts
30-Jan-16 15:58 34.794715 -116.265447 273 10045ft 169kts
30-Jan-16 15:59 34.794794 -116.272003 273 10043ft 169kts
30-Jan-16 16:00 34.794794 -116.272003 273 10043ft 169kts
30-Jan-16 16:01 34.795211 -116.307337 273 10031ft 167kts
30-Jan-16 16:02 34.795839 -116.363813 274 10010ft 165kts
30-Jan-16 16:03 34.796459 -116.419386 274 9995ft 163kts
30-Jan-16 16:04 34.795985 -116.474434 267 9995ft 164kts
30-Jan-16 16:05 34.790005 -116.529470 268 9995ft 163kts
30-Jan-16 16:06 34.784139 -116.584252 268 9994ft 163kts
30-Jan-16 16:07 34.778281 -116.639097 268 9994ft 163kts
30-Jan-16 16:08 34.772621 -116.692501 268 10003ft 164kts
30-Jan-16 16:09 34.766844 -116.746373 268 9972ft 166kts
30-Jan-16 16:10 34.760870 -116.801965 268 9973ft 165kts
30-Jan-16 16:11 34.754846 -116.857418 267 9972ft 165kts
30-Jan-16 16:13 34.757337 -116.911850 274 9980ft 162kts
30-Jan-16 16:14 34.755192 -116.966965 270 9998ft 163kts
30-Jan-16 16:15 34.750550 -117.022352 268 10016ft 164kts
30-Jan-16 16:16 34.744961 -117.077619 268 10037ft 165kts
30-Jan-16 16:17 34.738959 -117.133155 268 10058ft 165kts
30-Jan-16 16:18 34.732814 -117.188739 268 10063ft 166kts
30-Jan-16 16:19 34.726462 -117.245478 267 9939ft 168kts
30-Jan-16 16:20 34.720104 -117.301682 268 9941ft 167kts
30-Jan-16 16:21 34.713753 -117.357654 267 9941ft 166kts
30-Jan-16 16:22 34.707387 -117.413466 268 9940ft 165kts
30-Jan-16 16:23 34.701055 -117.468766 268 9939ft 165kts
30-Jan-16 16:24 34.694716 -117.523935 268 9939ft 163kts
30-Jan-16 16:25 34.688425 -117.578392 268 9938ft 162kts
30-Jan-16 16:26 34.682124 -117.632886 268 9937ft 161kts
30-Jan-16 16:27 34.676227 -117.683756 267 9947ft 162kts
30-Jan-16 16:28 34.669883 -117.738333 267 9948ft 163kts
30-Jan-16 16:29 34.663504 -117.792735 267 9949ft 162kts
30-Jan-16 16:30 34.657119 -117.846994 267 9952ft 162kts
30-Jan-16 16:31 34.650750 -117.900839 266 9962ft 161kts
30-Jan-16 16:32 34.644413 -117.954290 267 9972ft 161kts
30-Jan-16 16:33 34.638028 -118.007876 267 9979ft 160kts
30-Jan-16 16:34 34.631635 -118.061371 266 9986ft 160kts
30-Jan-16 16:35 34.620190 -118.114065 261 9990ft 162kts
30-Jan-16 16:36 34.608183 -118.166863 261 9991ft 162kts
30-Jan-16 16:37 34.596200 -118.219765 261 9610ft 161kts
30-Jan-16 16:38 34.584347 -118.272053 261 9088ft 160kts
30-Jan-16 16:38 34.574471 -118.315549 261 8652ft 160kts
30-Jan-16 16:39 34.562466 -118.368415 258 8015ft 160kts
30-Jan-16 16:40 34.551100 -118.418717 256 8005ft 152kts
30-Jan-16 16:41 34.533520 -118.463472 210 7787ft 167kts
30-Jan-16 16:42 34.492082 -118.484483 206 7116ft 159kts
30-Jan-16 16:43 34.451077 -118.503574 204 6304ft 160kts
30-Jan-16 16:44 34.409491 -118.522740 207 5554ft 159kts
30-Jan-16 16:45 34.369611 -118.545776 206 5012ft 151kts
30-Jan-16 16:46 34.332809 -118.563977 204 5005ft 138kts
30-Jan-16 16:47 34.297770 -118.581225 206 5006ft 134kts
30-Jan-16 16:48 34.263752 -118.598779 206 5006ft 133kts
30-Jan-16 16:49 34.228378 -118.614900 181 4755ft 152kts
30-Jan-16 16:50 34.201140 -118.569094 122 4179ft 181kts
30-Jan-16 16:51 34.199678 -118.515021 97 3994ft 119kts
30-Jan-16 16:52 34.199206 -118.473817 93 2333ft 121kts
30-Jan-16 16:53 34.198910 -118.433569 93 1935ft 120kts
30-Jan-16 16:54 34.198291 -118.395362 94 1238ft 101kts
30-Jan-16 16:55 34.197833 -118.362934 94 783ft 77kts
30-Jan-16 16:56 34.198534 -118.357967 1 780ft 0kts
30-Jan-16 16:57 34.200315 -118.359520 348 780ft 10kts

Navigation Log

Ident Type
Flight plan parsing failed, navigation log unavailable